sensor_id;sensor_type;location;lat;lon;timestamp;pressure;altitude;pressure_sealevel;temperature;humidity
79780;BME280;69258;52.050;10.334;2023-04-25T00:11:45;98746.44;;;20.78;47.20
79780;BME280;69258;52.050;10.334;2023-04-25T00:26:46;98753.00;;;20.82;47.32
79780;BME280;69258;52.050;10.334;2023-04-25T00:41:48;98747.16;;;20.85;47.13
79780;BME280;69258;52.050;10.334;2023-04-25T00:56:50;98734.38;;;20.87;47.32
79780;BME280;69258;52.050;10.334;2023-04-25T01:11:52;98736.81;;;20.89;47.38
79780;BME280;69258;52.050;10.334;2023-04-25T01:26:54;98733.09;;;20.90;47.08
79780;BME280;69258;52.050;10.334;2023-04-25T01:41:56;98740.09;;;20.91;46.83
79780;BME280;69258;52.050;10.334;2023-04-25T01:56:58;98749.78;;;20.92;46.94
79780;BME280;69258;52.050;10.334;2023-04-25T02:12:00;98758.59;;;20.92;47.04
79780;BME280;69258;52.050;10.334;2023-04-25T02:27:01;98752.19;;;20.93;47.22
79780;BME280;69258;52.050;10.334;2023-04-25T02:42:03;98757.56;;;20.93;46.86
79780;BME280;69258;52.050;10.334;2023-04-25T02:57:06;98766.41;;;20.94;47.17
79780;BME280;69258;52.050;10.334;2023-04-25T03:12:08;98766.63;;;20.92;46.75
79780;BME280;69258;52.050;10.334;2023-04-25T03:27:10;98770.94;;;20.93;46.40
79780;BME280;69258;52.050;10.334;2023-04-25T03:42:12;98782.47;;;20.94;46.89
79780;BME280;69258;52.050;10.334;2023-04-25T03:57:14;98814.16;;;20.97;46.67
79780;BME280;69258;52.050;10.334;2023-04-25T04:12:16;98831.03;;;20.97;47.15
79780;BME280;69258;52.050;10.334;2023-04-25T04:27:32;98845.03;;;20.99;46.73
79780;BME280;69258;52.050;10.334;2023-04-25T04:42:33;98857.16;;;21.02;46.92
79780;BME280;69258;52.050;10.334;2023-04-25T04:57:35;98867.25;;;21.00;47.11
79780;BME280;69258;52.050;10.334;2023-04-25T05:12:37;98885.22;;;20.99;46.81
79780;BME280;69258;52.050;10.334;2023-04-25T05:27:38;98902.06;;;21.00;47.47
79780;BME280;69258;52.050;10.334;2023-04-25T05:42:40;98920.25;;;20.98;47.93
79780;BME280;69258;52.050;10.334;2023-04-25T05:57:42;98934.09;;;20.95;47.77
79780;BME280;69258;52.050;10.334;2023-04-25T06:12:44;98946.28;;;20.91;47.61
79780;BME280;69258;52.050;10.334;2023-04-25T06:27:46;98955.59;;;20.88;47.52
79780;BME280;69258;52.050;10.334;2023-04-25T06:42:47;98968.19;;;20.88;47.03
79780;BME280;69258;52.050;10.334;2023-04-25T06:57:49;98971.69;;;20.88;47.38
79780;BME280;69258;52.050;10.334;2023-04-25T07:12:51;98992.47;;;20.86;47.25
79780;BME280;69258;52.050;10.334;2023-04-25T07:27:53;98994.50;;;20.91;47.19
79780;BME280;69258;52.050;10.334;2023-04-25T07:42:54;98997.34;;;20.96;47.23
79780;BME280;69258;52.050;10.334;2023-04-25T07:57:56;99000.38;;;20.99;46.80
79780;BME280;69258;52.050;10.334;2023-04-25T08:12:58;99027.53;;;21.03;46.94
79780;BME280;69258;52.050;10.334;2023-04-25T08:28:00;99039.44;;;21.07;46.52
79780;BME280;69258;52.050;10.334;2023-04-25T08:43:03;99058.19;;;21.07;46.76
79780;BME280;69258;52.050;10.334;2023-04-25T08:58:09;99089.28;;;21.08;46.42
79780;BME280;69258;52.050;10.334;2023-04-25T09:13:14;99096.47;;;21.14;46.96
79780;BME280;69258;52.050;10.334;2023-04-25T09:28:16;99117.31;;;21.12;46.60
79780;BME280;69258;52.050;10.334;2023-04-25T09:43:22;99135.19;;;21.18;46.85
79780;BME280;69258;52.050;10.334;2023-04-25T09:58:24;99144.47;;;21.16;47.10
79780;BME280;69258;52.050;10.334;2023-04-25T10:13:27;99178.28;;;21.17;46.76
79780;BME280;69258;52.050;10.334;2023-04-25T10:28:56;99175.13;;;21.20;46.82
79780;BME280;69258;52.050;10.334;2023-04-25T10:44:03;99182.97;;;21.21;46.29
79780;BME280;69258;52.050;10.334;2023-04-25T11:14:13;99186.84;;;21.25;46.36
79780;BME280;69258;52.050;10.334;2023-04-25T11:29:14;99189.28;;;21.27;47.25
79780;BME280;69258;52.050;10.334;2023-04-25T11:44:17;99210.97;;;21.25;47.26
79780;BME280;69258;52.050;10.334;2023-04-25T11:59:23;99217.53;;;21.29;46.66
79780;BME280;69258;52.050;10.334;2023-04-25T12:14:30;99213.78;;;21.30;47.08
79780;BME280;69258;52.050;10.334;2023-04-25T12:29:32;99228.84;;;21.31;46.98
79780;BME280;69258;52.050;10.334;2023-04-25T12:44:49;99233.16;;;21.32;46.98
79780;BME280;69258;52.050;10.334;2023-04-25T12:59:50;99253.78;;;21.32;47.00
79780;BME280;69258;52.050;10.334;2023-04-25T13:14:52;99268.59;;;21.34;47.10
79780;BME280;69258;52.050;10.334;2023-04-25T13:29:54;99269.66;;;21.33;47.09
79780;BME280;69258;52.050;10.334;2023-04-25T13:44:56;99266.53;;;21.36;46.62
79780;BME280;69258;52.050;10.334;2023-04-25T13:59:57;99279.50;;;21.39;46.57
79780;BME280;69258;52.050;10.334;2023-04-25T14:14:59;99288.56;;;21.38;47.19
79780;BME280;69258;52.050;10.334;2023-04-25T14:30:01;99302.78;;;20.32;40.41
79780;BME280;69258;52.050;10.334;2023-04-25T14:45:04;99293.50;;;20.79;39.09
79780;BME280;69258;52.050;10.334;2023-04-25T15:00:07;99290.63;;;21.05;40.93
79780;BME280;69258;52.050;10.334;2023-04-25T15:15:09;99315.75;;;21.10;40.75
79780;BME280;69258;52.050;10.334;2023-04-25T15:30:14;99361.72;;;21.14;41.01
79780;BME280;69258;52.050;10.334;2023-04-25T15:45:17;99356.97;;;21.16;41.37
79780;BME280;69258;52.050;10.334;2023-04-25T16:00:20;99348.72;;;21.18;42.25
79780;BME280;69258;52.050;10.334;2023-04-25T16:15:21;99338.16;;;21.23;42.04
79780;BME280;69258;52.050;10.334;2023-04-25T16:30:23;99338.16;;;21.23;42.16
79780;BME280;69258;52.050;10.334;2023-04-25T16:45:25;99351.34;;;21.24;41.92
79780;BME280;69258;52.050;10.334;2023-04-25T17:00:27;99361.25;;;21.24;41.74
79780;BME280;69258;52.050;10.334;2023-04-25T17:15:28;99361.47;;;21.22;42.28
79780;BME280;69258;52.050;10.334;2023-04-25T17:30:33;99370.09;;;21.24;42.09
79780;BME280;69258;52.050;10.334;2023-04-25T17:45:35;99383.50;;;21.24;42.63
79780;BME280;69258;52.050;10.334;2023-04-25T18:00:37;99393.41;;;21.24;42.66
79780;BME280;69258;52.050;10.334;2023-04-25T18:15:39;99439.78;;;21.24;42.73
79780;BME280;69258;52.050;10.334;2023-04-25T18:30:41;99458.72;;;21.23;43.28
79780;BME280;69258;52.050;10.334;2023-04-25T18:45:43;99470.50;;;21.22;42.95
79780;BME280;69258;52.050;10.334;2023-04-25T19:00:45;99494.81;;;21.20;43.46
79780;BME280;69258;52.050;10.334;2023-04-25T19:15:47;99509.25;;;21.19;43.26
79780;BME280;69258;52.050;10.334;2023-04-25T19:30:49;99519.56;;;21.16;43.35
79780;BME280;69258;52.050;10.334;2023-04-25T19:45:50;99531.94;;;21.10;43.47
79780;BME280;69258;52.050;10.334;2023-04-25T20:00:52;99545.97;;;21.05;43.76
79780;BME280;69258;52.050;10.334;2023-04-25T20:15:54;99551.13;;;21.00;43.64
79780;BME280;69258;52.050;10.334;2023-04-25T20:30:56;99554.47;;;20.96;43.99
79780;BME280;69258;52.050;10.334;2023-04-25T20:45:58;99562.06;;;20.92;43.69
79780;BME280;69258;52.050;10.334;2023-04-25T21:01:01;99563.31;;;20.90;44.09
79780;BME280;69258;52.050;10.334;2023-04-25T21:16:03;99570.94;;;20.86;44.31
79780;BME280;69258;52.050;10.334;2023-04-25T21:31:05;99588.44;;;20.82;43.91
79780;BME280;69258;52.050;10.334;2023-04-25T21:46:07;99586.38;;;20.78;43.92
79780;BME280;69258;52.050;10.334;2023-04-25T22:01:24;99590.50;;;20.74;44.07
79780;BME280;69258;52.050;10.334;2023-04-25T22:16:25;99598.38;;;20.69;43.95
79780;BME280;69258;52.050;10.334;2023-04-25T22:31:27;99610.72;;;20.63;44.08
79780;BME280;69258;52.050;10.334;2023-04-25T22:46:29;99622.03;;;20.58;43.91
79780;BME280;69258;52.050;10.334;2023-04-25T23:01:31;99633.56;;;20.52;43.84
79780;BME280;69258;52.050;10.334;2023-04-25T23:16:33;99644.69;;;20.49;44.01
79780;BME280;69258;52.050;10.334;2023-04-25T23:31:35;99646.75;;;20.60;44.10
79780;BME280;69258;52.050;10.334;2023-04-25T23:46:37;99653.75;;;20.68;43.60
